sensor_id;sensor_type;location;lat;lon;timestamp;pressure;altitude;pressure_sealevel;temperature;humidity
73842;BME280;62184;52.006;5.924;2022-10-31T00:00:31;101298.44;;;15.28;68.01
73842;BME280;62184;52.006;5.924;2022-10-31T00:02:57;101303.88;;;15.26;67.75
73842;BME280;62184;52.006;5.924;2022-10-31T00:05:24;101311.09;;;15.24;67.55
73842;BME280;62184;52.006;5.924;2022-10-31T00:07:51;101303.13;;;15.23;67.65
73842;BME280;62184;52.006;5.924;2022-10-31T00:10:21;101309.47;;;15.20;67.82
73842;BME280;62184;52.006;5.924;2022-10-31T00:12:47;101312.22;;;15.19;67.79
73842;BME280;62184;52.006;5.924;2022-10-31T00:15:14;101306.06;;;15.15;68.11
73842;BME280;62184;52.006;5.924;2022-10-31T00:17:40;101305.25;;;15.13;68.54
73842;BME280;62184;52.006;5.924;2022-10-31T00:20:08;101308.97;;;15.09;68.44
73842;BME280;62184;52.006;5.924;2022-10-31T00:22:35;101308.16;;;15.07;68.16
73842;BME280;62184;52.006;5.924;2022-10-31T00:25:02;101310.00;;;15.07;68.74
73842;BME280;62184;52.006;5.924;2022-10-31T00:27:31;101302.84;;;15.06;69.26
73842;BME280;62184;52.006;5.924;2022-10-31T00:29:58;101310.00;;;15.07;69.08
73842;BME280;62184;52.006;5.924;2022-10-31T00:32:24;101308.16;;;15.07;69.10
73842;BME280;62184;52.006;5.924;2022-10-31T00:34:50;101309.09;;;15.06;69.16
73842;BME280;62184;52.006;5.924;2022-10-31T00:37:17;101310.00;;;15.07;69.27
73842;BME280;62184;52.006;5.924;2022-10-31T00:39:43;101306.34;;;15.08;69.41
73842;BME280;62184;52.006;5.924;2022-10-31T00:42:09;101308.09;;;15.09;69.20
73842;BME280;62184;52.006;5.924;2022-10-31T00:44:38;101300.84;;;15.11;69.40
73842;BME280;62184;52.006;5.924;2022-10-31T00:47:05;101307.13;;;15.11;68.97
73842;BME280;62184;52.006;5.924;2022-10-31T00:49:31;101305.31;;;15.12;68.86
73842;BME280;62184;52.006;5.924;2022-10-31T00:51:58;101308.00;;;15.12;68.75
73842;BME280;62184;52.006;5.924;2022-10-31T00:54:24;101308.00;;;15.12;68.83
73842;BME280;62184;52.006;5.924;2022-10-31T00:56:50;101308.00;;;15.12;68.98
73842;BME280;62184;52.006;5.924;2022-10-31T00:59:17;101308.00;;;15.12;69.13
73842;BME280;62184;52.006;5.924;2022-10-31T01:01:46;101314.31;;;15.11;69.05
73842;BME280;62184;52.006;5.924;2022-10-31T01:04:12;101317.00;;;15.11;69.02
73842;BME280;62184;52.006;5.924;2022-10-31T01:06:39;101323.31;;;15.10;68.64
73842;BME280;62184;52.006;5.924;2022-10-31T01:09:05;101326.94;;;15.09;68.91
73842;BME280;62184;52.006;5.924;2022-10-31T01:11:31;101316.16;;;15.09;69.07
73842;BME280;62184;52.006;5.924;2022-10-31T01:13:58;101314.41;;;15.08;69.06
73842;BME280;62184;52.006;5.924;2022-10-31T01:16:26;101311.72;;;15.08;69.02
73842;BME280;62184;52.006;5.924;2022-10-31T01:18:55;101310.78;;;15.09;68.88
73842;BME280;62184;52.006;5.924;2022-10-31T01:21:23;101302.66;;;15.10;68.68
73842;BME280;62184;52.006;5.924;2022-10-31T01:23:53;101310.63;;;15.13;68.36
73842;BME280;62184;52.006;5.924;2022-10-31T01:26:22;101309.63;;;15.16;68.02
73842;BME280;62184;52.006;5.924;2022-10-31T01:28:52;101311.53;;;15.14;67.85
73842;BME280;62184;52.006;5.924;2022-10-31T01:31:22;101303.44;;;15.14;68.02
73842;BME280;62184;52.006;5.924;2022-10-31T01:33:51;101311.53;;;15.14;67.76
73842;BME280;62184;52.006;5.924;2022-10-31T01:36:22;101308.88;;;15.12;67.73
73842;BME280;62184;52.006;5.924;2022-10-31T01:38:50;101304.47;;;15.10;67.71
73842;BME280;62184;52.006;5.924;2022-10-31T01:41:20;101310.00;;;15.07;67.91
73842;BME280;62184;52.006;5.924;2022-10-31T01:43:50;101303.78;;;15.05;67.92
73842;BME280;62184;52.006;5.924;2022-10-31T01:46:22;101294.81;;;15.04;67.48
73842;BME280;62184;52.006;5.924;2022-10-31T01:48:52;101294.88;;;15.03;67.76
73842;BME280;62184;52.006;5.924;2022-10-31T01:51:27;101285.03;;;15.02;67.44
73842;BME280;62184;52.006;5.924;2022-10-31T01:54:01;101281.53;;;15.00;67.22
73842;BME280;62184;52.006;5.924;2022-10-31T01:56:37;101287.03;;;14.97;67.19
73842;BME280;62184;52.006;5.924;2022-10-31T01:59:10;101284.41;;;14.95;67.26
73842;BME280;62184;52.006;5.924;2022-10-31T02:01:40;101287.13;;;14.93;67.09
73842;BME280;62184;52.006;5.924;2022-10-31T02:04:07;101298.81;;;14.92;67.10
73842;BME280;62184;52.006;5.924;2022-10-31T02:06:41;101298.06;;;14.89;67.02
73842;BME280;62184;52.006;5.924;2022-10-31T02:09:13;101296.34;;;14.86;66.73
73842;BME280;62184;52.006;5.924;2022-10-31T02:11:41;101294.63;;;14.84;66.88
73842;BME280;62184;52.006;5.924;2022-10-31T02:14:10;101293.75;;;14.83;66.58
73842;BME280;62184;52.006;5.924;2022-10-31T02:16:37;101296.59;;;14.80;66.65
73842;BME280;62184;52.006;5.924;2022-10-31T02:19:05;101292.22;;;14.76;66.88
73842;BME280;62184;52.006;5.924;2022-10-31T02:21:44;101297.78;;;14.72;66.89
73842;BME280;62184;52.006;5.924;2022-10-31T02:24:44;101308.81;;;14.64;67.23
73842;BME280;62184;52.006;5.924;2022-10-31T02:27:32;101295.66;;;14.55;67.61
73842;BME280;62184;52.006;5.924;2022-10-31T02:30:18;101304.72;;;14.51;67.21
73842;BME280;62184;52.006;5.924;2022-10-31T02:33:14;101300.31;;;14.48;67.17
73842;BME280;62184;52.006;5.924;2022-10-31T02:35:55;101301.41;;;14.43;67.38
73842;BME280;62184;52.006;5.924;2022-10-31T02:38:40;101298.00;;;14.38;67.77
73842;BME280;62184;52.006;5.924;2022-10-31T02:41:20;101307.09;;;14.34;67.70
73842;BME280;62184;52.006;5.924;2022-10-31T02:44:02;101296.47;;;14.31;67.61
73842;BME280;62184;52.006;5.924;2022-10-31T02:46:38;101296.53;;;14.28;67.33
73842;BME280;62184;52.006;5.924;2022-10-31T02:49:23;101299.38;;;14.23;67.10
73842;BME280;62184;52.006;5.924;2022-10-31T02:51:53;101296.84;;;14.18;66.94
73842;BME280;62184;52.006;5.924;2022-10-31T02:54:21;101301.50;;;14.13;67.01
73842;BME280;62184;52.006;5.924;2022-10-31T02:56:51;101301.63;;;14.09;67.41
73842;BME280;62184;52.006;5.924;2022-10-31T02:59:24;101302.66;;;14.05;67.77
73842;BME280;62184;52.006;5.924;2022-10-31T03:08:02;101301.97;;;13.98;67.30
73842;BME280;62184;52.006;5.924;2022-10-31T03:10:42;101302.13;;;13.94;67.03
73842;BME280;62184;52.006;5.924;2022-10-31T03:13:20;101297.72;;;13.91;66.88
73842;BME280;62184;52.006;5.924;2022-10-31T03:15:57;101301.44;;;13.87;67.09
73842;BME280;62184;52.006;5.924;2022-10-31T03:18:37;101302.41;;;13.85;67.26
73842;BME280;62184;52.006;5.924;2022-10-31T03:21:11;101300.69;;;13.82;67.11
73842;BME280;62184;52.006;5.924;2022-10-31T03:23:43;101299.00;;;13.79;67.92
73842;BME280;62184;52.006;5.924;2022-10-31T03:26:13;101300.00;;;13.75;67.31
73842;BME280;62184;52.006;5.924;2022-10-31T03:28:45;101294.78;;;13.71;67.24
73842;BME280;62184;52.006;5.924;2022-10-31T03:31:18;101288.75;;;13.63;66.90
73842;BME280;62184;52.006;5.924;2022-10-31T03:33:48;101299.63;;;13.58;67.06
73842;BME280;62184;52.006;5.924;2022-10-31T03:36:20;101294.38;;;13.55;66.81
73842;BME280;62184;52.006;5.924;2022-10-31T03:38:48;101290.03;;;13.50;66.43
73842;BME280;62184;52.006;5.924;2022-10-31T03:41:20;101295.63;;;13.42;66.61
73842;BME280;62184;52.006;5.924;2022-10-31T03:43:55;101299.44;;;13.33;66.71
73842;BME280;62184;52.006;5.924;2022-10-31T03:46:28;101302.34;;;13.26;66.89
73842;BME280;62184;52.006;5.924;2022-10-31T03:48:55;101305.19;;;13.20;67.82
73842;BME280;62184;52.006;5.924;2022-10-31T03:51:27;101297.38;;;13.12;68.53
73842;BME280;62184;52.006;5.924;2022-10-31T03:54:08;101299.25;;;13.09;69.32
73842;BME280;62184;52.006;5.924;2022-10-31T03:56:43;101309.06;;;13.10;69.74
73842;BME280;62184;52.006;5.924;2022-10-31T03:59:18;101308.09;;;13.12;69.49
73842;BME280;62184;52.006;5.924;2022-10-31T04:01:53;101309.78;;;13.15;69.43
73842;BME280;62184;52.006;5.924;2022-10-31T04:04:24;101305.31;;;13.15;68.87
73842;BME280;62184;52.006;5.924;2022-10-31T04:06:56;101310.69;;;13.15;68.49
73842;BME280;62184;52.006;5.924;2022-10-31T04:09:27;101304.56;;;13.10;68.53
73842;BME280;62184;52.006;5.924;2022-10-31T04:12:00;101300.19;;;13.06;68.35
73842;BME280;62184;52.006;5.924;2022-10-31T04:14:31;101304.72;;;13.05;67.95
73842;BME280;62184;52.006;5.924;2022-10-31T04:17:01;101297.63;;;13.03;67.79
73842;BME280;62184;52.006;5.924;2022-10-31T04:19:32;101299.47;;;13.01;67.49
73842;BME280;62184;52.006;5.924;2022-10-31T04:22:01;101307.59;;;12.98;67.59
73842;BME280;62184;52.006;5.924;2022-10-31T04:24:28;101297.03;;;12.92;67.88
73842;BME280;62184;52.006;5.924;2022-10-31T04:26:54;101299.88;;;12.86;68.23
73842;BME280;62184;52.006;5.924;2022-10-31T04:29:21;101296.34;;;12.84;68.43
73842;BME280;62184;52.006;5.924;2022-10-31T04:31:47;101300.00;;;12.81;68.74
73842;BME280;62184;52.006;5.924;2022-10-31T04:34:14;101291.94;;;12.81;68.70
73842;BME280;62184;52.006;5.924;2022-10-31T04:36:40;101290.16;;;12.82;68.40
73842;BME280;62184;52.006;5.924;2022-10-31T04:39:09;101294.59;;;12.83;68.15
73842;BME280;62184;52.006;5.924;2022-10-31T04:41:35;101291.84;;;12.86;68.14
73842;BME280;62184;52.006;5.924;2022-10-31T04:44:02;101297.13;;;12.89;68.32
73842;BME280;62184;52.006;5.924;2022-10-31T04:46:28;101294.38;;;12.90;67.85
73842;BME280;62184;52.006;5.924;2022-10-31T04:48:55;101286.41;;;12.89;67.95
73842;BME280;62184;52.006;5.924;2022-10-31T04:51:22;101285.56;;;12.87;67.92
73842;BME280;62184;52.006;5.924;2022-10-31T04:53:48;101298.09;;;12.86;68.05
73842;BME280;62184;52.006;5.924;2022-10-31T04:56:17;101290.13;;;12.83;68.26
73842;BME280;62184;52.006;5.924;2022-10-31T04:58:43;101292.81;;;12.83;69.03
73842;BME280;62184;52.006;5.924;2022-10-31T05:01:10;101295.50;;;12.82;68.68
73842;BME280;62184;52.006;5.924;2022-10-31T05:03:36;101294.69;;;12.80;69.39
73842;BME280;62184;52.006;5.924;2022-10-31T05:06:03;101286.59;;;12.81;69.19
73842;BME280;62184;52.006;5.924;2022-10-31T05:08:30;101291.91;;;12.83;69.23
73842;BME280;62184;52.006;5.924;2022-10-31T05:10:59;101294.59;;;12.83;68.73
73842;BME280;62184;52.006;5.924;2022-10-31T05:13:29;101289.22;;;12.83;68.49
73842;BME280;62184;52.006;5.924;2022-10-31T05:15:56;101293.66;;;12.85;68.53
73842;BME280;62184;52.006;5.924;2022-10-31T05:18:22;101288.31;;;12.84;68.21
73842;BME280;62184;52.006;5.924;2022-10-31T05:20:49;101284.78;;;12.82;68.06
73842;BME280;62184;52.006;5.924;2022-10-31T05:23:15;101286.66;;;12.80;68.18
73842;BME280;62184;52.006;5.924;2022-10-31T05:25:42;101285.84;;;12.76;68.57
73842;BME280;62184;52.006;5.924;2022-10-31T05:28:08;101271.59;;;12.74;68.87
73842;BME280;62184;52.006;5.924;2022-10-31T05:30:37;101267.97;;;12.77;69.13
73842;BME280;62184;52.006;5.924;2022-10-31T05:33:04;101273.19;;;12.81;69.09
73842;BME280;62184;52.006;5.924;2022-10-31T05:35:31;101262.41;;;12.84;69.30
73842;BME280;62184;52.006;5.924;2022-10-31T05:37:58;101266.66;;;12.91;69.51
73842;BME280;62184;52.006;5.924;2022-10-31T05:40:26;101264.78;;;12.95;69.29
73842;BME280;62184;52.006;5.924;2022-10-31T05:42:56;101272.66;;;13.01;69.46
73842;BME280;62184;52.006;5.924;2022-10-31T05:45:23;101269.91;;;13.04;69.50
73842;BME280;62184;52.006;5.924;2022-10-31T05:47:53;101268.84;;;13.10;69.31
73842;BME280;62184;52.006;5.924;2022-10-31T05:50:21;101273.13;;;13.15;69.63
73842;BME280;62184;52.006;5.924;2022-10-31T05:52:54;101277.47;;;13.21;69.45
73842;BME280;62184;52.006;5.924;2022-10-31T05:55:21;101279.03;;;13.28;69.49
73842;BME280;62184;52.006;5.924;2022-10-31T05:57:48;101267.25;;;13.33;69.50
73842;BME280;62184;52.006;5.924;2022-10-31T06:00:15;101276.91;;;13.40;69.75
73842;BME280;62184;52.006;5.924;2022-10-31T06:02:41;101275.81;;;13.48;69.37
73842;BME280;62184;52.006;5.924;2022-10-31T06:05:10;101276.53;;;13.53;68.91
73842;BME280;62184;52.006;5.924;2022-10-31T06:07:37;101272.97;;;13.52;68.95
73842;BME280;62184;52.006;5.924;2022-10-31T06:10:05;101267.66;;;13.51;69.47
73842;BME280;62184;52.006;5.924;2022-10-31T06:12:34;101270.28;;;13.52;70.28
73842;BME280;62184;52.006;5.924;2022-10-31T06:15:01;101271.19;;;13.53;70.24
73842;BME280;62184;52.006;5.924;2022-10-31T06:17:27;101277.50;;;13.50;70.21
73842;BME280;62184;52.006;5.924;2022-10-31T06:19:54;101261.44;;;13.49;70.04
73842;BME280;62184;52.006;5.924;2022-10-31T06:22:23;101266.81;;;13.49;70.03
73842;BME280;62184;52.006;5.924;2022-10-31T06:24:49;101262.44;;;13.46;69.52
73842;BME280;62184;52.006;5.924;2022-10-31T06:27:15;101274.13;;;13.43;69.11
73842;BME280;62184;52.006;5.924;2022-10-31T06:29:42;101265.34;;;13.37;69.06
73842;BME280;62184;52.006;5.924;2022-10-31T06:32:10;101268.13;;;13.34;69.37
73842;BME280;62184;52.006;5.924;2022-10-31T06:34:37;101270.06;;;13.29;69.15
73842;BME280;62184;52.006;5.924;2022-10-31T06:37:06;101263.91;;;13.25;69.52
73842;BME280;62184;52.006;5.924;2022-10-31T06:39:35;101270.19;;;13.24;70.08
73842;BME280;62184;52.006;5.924;2022-10-31T06:42:02;101264.84;;;13.23;70.24
73842;BME280;62184;52.006;5.924;2022-10-31T06:44:29;101265.75;;;13.23;69.94
73842;BME280;62184;52.006;5.924;2022-10-31T06:46:55;101280.94;;;13.23;70.42
73842;BME280;62184;52.006;5.924;2022-10-31T06:49:21;101278.34;;;13.21;70.75
73842;BME280;62184;52.006;5.924;2022-10-31T06:51:48;101286.47;;;13.18;71.05
73842;BME280;62184;52.006;5.924;2022-10-31T06:54:16;101284.69;;;13.17;71.49
73842;BME280;62184;52.006;5.924;2022-10-31T06:56:45;101274.75;;;13.22;71.48
73842;BME280;62184;52.006;5.924;2022-10-31T06:59:12;101274.63;;;13.25;71.51
73842;BME280;62184;52.006;5.924;2022-10-31T07:01:39;101274.56;;;13.28;71.09
73842;BME280;62184;52.006;5.924;2022-10-31T07:04:05;101279.72;;;13.34;71.26
73842;BME280;62184;52.006;5.924;2022-10-31T07:06:33;101279.56;;;13.40;70.78
73842;BME280;62184;52.006;5.924;2022-10-31T07:08:59;101278.56;;;13.45;70.15
73842;BME280;62184;52.006;5.924;2022-10-31T07:11:26;101278.44;;;13.49;69.80
73842;BME280;62184;52.006;5.924;2022-10-31T07:13:54;101283.75;;;13.51;69.88
73842;BME280;62184;52.006;5.924;2022-10-31T07:16:22;101282.84;;;13.52;69.56
73842;BME280;62184;52.006;5.924;2022-10-31T07:18:48;101281.00;;;13.54;69.75
73842;BME280;62184;52.006;5.924;2022-10-31T07:21:14;101275.50;;;13.57;69.51
73842;BME280;62184;52.006;5.924;2022-10-31T07:23:41;101279.03;;;13.59;69.14
73842;BME280;62184;52.006;5.924;2022-10-31T07:26:09;101283.41;;;13.63;69.25
73842;BME280;62184;52.006;5.924;2022-10-31T07:28:36;101278.91;;;13.63;69.01
73842;BME280;62184;52.006;5.924;2022-10-31T07:31:05;101275.22;;;13.66;69.23
73842;BME280;62184;52.006;5.924;2022-10-31T07:33:32;101284.03;;;13.71;69.35
73842;BME280;62184;52.006;5.924;2022-10-31T07:35:59;101275.72;;;13.80;69.60
73842;BME280;62184;52.006;5.924;2022-10-31T07:38:26;101277.28;;;13.87;69.66
73842;BME280;62184;52.006;5.924;2022-10-31T07:40:52;101274.38;;;13.93;69.59
73842;BME280;62184;52.006;5.924;2022-10-31T07:43:19;101285.00;;;13.98;69.86
73842;BME280;62184;52.006;5.924;2022-10-31T07:45:49;101275.84;;;14.03;69.84
73842;BME280;62184;52.006;5.924;2022-10-31T07:48:19;101277.50;;;14.07;70.05
73842;BME280;62184;52.006;5.924;2022-10-31T07:50:46;101281.81;;;14.13;70.32
73842;BME280;62184;52.006;5.924;2022-10-31T07:53:13;101281.66;;;14.17;70.53
73842;BME280;62184;52.006;5.924;2022-10-31T07:55:41;101286.81;;;14.24;70.62
73842;BME280;62184;52.006;5.924;2022-10-31T07:58:09;101282.19;;;14.29;70.90
73842;BME280;62184;52.006;5.924;2022-10-31T08:00:38;101282.75;;;14.38;71.14
73842;BME280;62184;52.006;5.924;2022-10-31T08:03:07;101280.56;;;14.49;71.11
73842;BME280;62184;52.006;5.924;2022-10-31T08:05:37;101286.56;;;14.59;71.56
73842;BME280;62184;52.006;5.924;2022-10-31T08:08:05;101283.53;;;14.68;71.71
73842;BME280;62184;52.006;5.924;2022-10-31T08:10:31;101282.34;;;14.77;71.79
73842;BME280;62184;52.006;5.924;2022-10-31T08:13:00;101292.75;;;14.87;71.62
73842;BME280;62184;52.006;5.924;2022-10-31T08:15:28;101286.03;;;14.99;71.81
73842;BME280;62184;52.006;5.924;2022-10-31T08:17:56;101297.22;;;15.12;71.88
73842;BME280;62184;52.006;5.924;2022-10-31T08:20:22;101306.69;;;15.23;71.97
73842;BME280;62184;52.006;5.924;2022-10-31T08:22:57;101304.34;;;15.38;71.50
73842;BME280;62184;52.006;5.924;2022-10-31T08:25:25;101297.75;;;15.46;71.77
73842;BME280;62184;52.006;5.924;2022-10-31T08:27:54;101299.25;;;15.53;71.41
73842;BME280;62184;52.006;5.924;2022-10-31T08:30:24;101301.69;;;15.61;71.22
73842;BME280;62184;52.006;5.924;2022-10-31T08:33:02;101297.09;;;15.64;70.58
73842;BME280;62184;52.006;5.924;2022-10-31T08:35:30;101298.94;;;15.62;70.81
73842;BME280;62184;52.006;5.924;2022-10-31T08:38:00;101298.81;;;15.65;70.50
73842;BME280;62184;52.006;5.924;2022-10-31T08:40:28;101295.97;;;15.70;70.31
73842;BME280;62184;52.006;5.924;2022-10-31T08:42:57;101293.94;;;15.75;70.12
73842;BME280;62184;52.006;5.924;2022-10-31T08:45:26;101283.94;;;15.79;70.20
73842;BME280;62184;52.006;5.924;2022-10-31T08:47:56;101284.56;;;15.85;69.96
73842;BME280;62184;52.006;5.924;2022-10-31T08:50:23;101288.66;;;15.95;69.59
73842;BME280;62184;52.006;5.924;2022-10-31T08:52:50;101276.69;;;16.02;69.49
73842;BME280;62184;52.006;5.924;2022-10-31T08:55:20;101277.47;;;16.06;69.46
73842;BME280;62184;52.006;5.924;2022-10-31T08:57:46;101286.22;;;16.11;69.42
73842;BME280;62184;52.006;5.924;2022-10-31T09:00:13;101270.75;;;16.16;69.42
73842;BME280;62184;52.006;5.924;2022-10-31T09:02:40;101277.47;;;16.28;69.47
73842;BME280;62184;52.006;5.924;2022-10-31T09:05:07;101287.47;;;16.46;69.16
73842;BME280;62184;52.006;5.924;2022-10-31T09:07:34;101270.63;;;16.63;69.03
73842;BME280;62184;52.006;5.924;2022-10-31T09:10:00;101270.88;;;16.77;68.39
73842;BME280;62184;52.006;5.924;2022-10-31T09:12:29;101276.69;;;16.88;67.99
73842;BME280;62184;52.006;5.924;2022-10-31T09:14:55;101264.56;;;16.98;67.43
73842;BME280;62184;52.006;5.924;2022-10-31T09:17:22;101261.44;;;17.07;67.15
73842;BME280;62184;52.006;5.924;2022-10-31T09:19:48;101262.69;;;17.19;67.38
73842;BME280;62184;52.006;5.924;2022-10-31T09:22:15;101263.91;;;17.32;66.56
73842;BME280;62184;52.006;5.924;2022-10-31T09:24:41;101257.03;;;17.44;66.60
73842;BME280;62184;52.006;5.924;2022-10-31T09:27:07;101263.91;;;17.51;65.79
73842;BME280;62184;52.006;5.924;2022-10-31T09:29:36;101266.47;;;17.54;65.30
73842;BME280;62184;52.006;5.924;2022-10-31T09:32:03;101272.56;;;17.59;65.13
73842;BME280;62184;52.006;5.924;2022-10-31T09:34:29;101267.84;;;17.64;65.21
73842;BME280;62184;52.006;5.924;2022-10-31T09:36:56;101257.66;;;17.69;65.12
73842;BME280;62184;52.006;5.924;2022-10-31T09:39:22;101243.84;;;17.75;65.13
73842;BME280;62184;52.006;5.924;2022-10-31T09:42:23;101220.28;;;17.79;65.13
73842;BME280;62184;52.006;5.924;2022-10-31T09:45:10;101205.09;;;17.76;64.92
73842;BME280;62184;52.006;5.924;2022-10-31T09:47:52;101225.06;;;17.74;65.13
73842;BME280;62184;52.006;5.924;2022-10-31T09:50:40;101225.94;;;17.91;65.14
73842;BME280;62184;52.006;5.924;2022-10-31T09:53:14;101234.09;;;18.09;64.19
73842;BME280;62184;52.006;5.924;2022-10-31T09:55:49;101228.97;;;18.21;63.79
73842;BME280;62184;52.006;5.924;2022-10-31T09:58:20;101240.22;;;18.31;63.88
73842;BME280;62184;52.006;5.924;2022-10-31T10:00:53;101228.94;;;18.40;63.51
73842;BME280;62184;52.006;5.924;2022-10-31T10:03:29;101228.81;;;18.42;63.14
73842;BME280;62184;52.006;5.924;2022-10-31T10:06:06;101232.34;;;18.44;62.95
73842;BME280;62184;52.006;5.924;2022-10-31T10:08:39;101229.56;;;18.45;62.85
73842;BME280;62184;52.006;5.924;2022-10-31T10:11:25;101228.59;;;18.46;62.64
73842;BME280;62184;52.006;5.924;2022-10-31T10:14:11;101222.97;;;18.51;62.95
73842;BME280;62184;52.006;5.924;2022-10-31T10:17:09;101219.97;;;18.57;62.98
73842;BME280;62184;52.006;5.924;2022-10-31T10:19:58;101223.16;;;18.65;63.04
73842;BME280;62184;52.006;5.924;2022-10-31T10:22:47;101207.31;;;18.75;62.73
73842;BME280;62184;52.006;5.924;2022-10-31T10:25:22;101186.34;;;18.78;62.70
73842;BME280;62184;52.006;5.924;2022-10-31T10:28:00;101171.25;;;18.74;62.73
73842;BME280;62184;52.006;5.924;2022-10-31T10:30:39;101176.69;;;18.57;63.01
73842;BME280;62184;52.006;5.924;2022-10-31T10:33:16;101188.16;;;18.43;63.36
73842;BME280;62184;52.006;5.924;2022-10-31T10:35:49;101193.66;;;18.42;63.52
73842;BME280;62184;52.006;5.924;2022-10-31T10:38:23;101206.84;;;18.49;63.76
73842;BME280;62184;52.006;5.924;2022-10-31T10:40:55;101194.81;;;18.55;63.46
73842;BME280;62184;52.006;5.924;2022-10-31T10:43:30;101200.78;;;18.61;62.88
73842;BME280;62184;52.006;5.924;2022-10-31T10:46:19;101187.91;;;18.66;63.45
73842;BME280;62184;52.006;5.924;2022-10-31T10:49:00;101187.66;;;18.71;62.51
73842;BME280;62184;52.006;5.924;2022-10-31T10:51:38;101186.50;;;18.75;62.60
73842;BME280;62184;52.006;5.924;2022-10-31T10:54:37;101184.78;;;18.74;62.89
73842;BME280;62184;52.006;5.924;2022-10-31T10:57:18;101169.25;;;18.78;62.51
73842;BME280;62184;52.006;5.924;2022-10-31T10:59:48;101140.63;;;18.74;62.34
73842;BME280;62184;52.006;5.924;2022-10-31T11:02:18;101144.28;;;18.73;63.13
73842;BME280;62184;52.006;5.924;2022-10-31T11:04:51;101147.63;;;18.93;63.57
73842;BME280;62184;52.006;5.924;2022-10-31T11:07:20;101136.66;;;19.12;62.19
73842;BME280;62184;52.006;5.924;2022-10-31T11:09:47;101141.41;;;19.24;61.62
73842;BME280;62184;52.006;5.924;2022-10-31T11:12:19;101144.56;;;19.32;60.92
73842;BME280;62184;52.006;5.924;2022-10-31T11:14:51;101133.56;;;19.35;60.82
73842;BME280;62184;52.006;5.924;2022-10-31T11:17:32;101117.94;;;19.40;60.30
73842;BME280;62184;52.006;5.924;2022-10-31T11:20:23;101116.00;;;19.42;59.72
73842;BME280;62184;52.006;5.924;2022-10-31T11:23:02;101120.13;;;19.50;60.07
73842;BME280;62184;52.006;5.924;2022-10-31T11:25:31;101113.31;;;19.58;59.55
73842;BME280;62184;52.006;5.924;2022-10-31T11:28:02;101097.91;;;19.59;59.36
73842;BME280;62184;52.006;5.924;2022-10-31T11:30:35;101091.09;;;19.52;59.24
73842;BME280;62184;52.006;5.924;2022-10-31T11:33:17;101077.03;;;19.45;59.16
73842;BME280;62184;52.006;5.924;2022-10-31T11:35:50;101078.44;;;19.36;59.56
73842;BME280;62184;52.006;5.924;2022-10-31T11:38:21;101088.66;;;19.31;59.44
73842;BME280;62184;52.006;5.924;2022-10-31T11:40:55;101079.81;;;19.28;59.96
73842;BME280;62184;52.006;5.924;2022-10-31T11:43:24;101061.88;;;19.25;59.35
73842;BME280;62184;52.006;5.924;2022-10-31T11:45:51;101054.75;;;19.24;59.87
73842;BME280;62184;52.006;5.924;2022-10-31T11:48:19;101051.16;;;19.24;59.62
73842;BME280;62184;52.006;5.924;2022-10-31T11:50:52;101052.28;;;19.20;59.75
73842;BME280;62184;52.006;5.924;2022-10-31T11:53:26;101052.13;;;19.23;60.24
73842;BME280;62184;52.006;5.924;2022-10-31T11:56:04;101033.84;;;19.26;60.02
73842;BME280;62184;52.006;5.924;2022-10-31T11:58:38;101034.47;;;19.31;60.15
73842;BME280;62184;52.006;5.924;2022-10-31T12:01:05;101040.34;;;19.39;59.91
73842;BME280;62184;52.006;5.924;2022-10-31T12:03:46;101044.53;;;19.45;60.32
73842;BME280;62184;52.006;5.924;2022-10-31T12:06:26;101049.56;;;19.51;60.09
73842;BME280;62184;52.006;5.924;2022-10-31T12:08:57;101035.56;;;19.59;60.22
73842;BME280;62184;52.006;5.924;2022-10-31T12:11:36;101013.72;;;19.62;60.25
73842;BME280;62184;52.006;5.924;2022-10-31T12:14:20;101003.75;;;19.62;60.39
73842;BME280;62184;52.006;5.924;2022-10-31T12:17:03;101003.75;;;19.62;60.23
73842;BME280;62184;52.006;5.924;2022-10-31T12:19:42;100996.03;;;19.70;60.10
73842;BME280;62184;52.006;5.924;2022-10-31T12:22:25;100992.69;;;19.81;60.00
73842;BME280;62184;52.006;5.924;2022-10-31T12:25:12;100985.34;;;19.97;59.41
73842;BME280;62184;52.006;5.924;2022-10-31T12:27:57;100977.81;;;20.02;58.65
73842;BME280;62184;52.006;5.924;2022-10-31T12:30:43;100969.97;;;19.98;58.71
73842;BME280;62184;52.006;5.924;2022-10-31T12:33:41;100967.44;;;19.95;58.82
73842;BME280;62184;52.006;5.924;2022-10-31T12:36:39;100974.03;;;19.91;58.88
73842;BME280;62184;52.006;5.924;2022-10-31T12:39:25;100960.25;;;19.79;59.53
73842;BME280;62184;52.006;5.924;2022-10-31T12:42:07;100950.44;;;19.77;59.87
73842;BME280;62184;52.006;5.924;2022-10-31T12:45:14;100939.53;;;19.78;60.13
73842;BME280;62184;52.006;5.924;2022-10-31T12:48:10;100934.31;;;19.75;59.60
73842;BME280;62184;52.006;5.924;2022-10-31T12:50:52;100928.91;;;19.75;60.12
73842;BME280;62184;52.006;5.924;2022-10-31T12:53:44;100921.81;;;19.87;59.85
73842;BME280;62184;52.006;5.924;2022-10-31T12:56:39;100914.00;;;19.97;60.04
73842;BME280;62184;52.006;5.924;2022-10-31T12:59:16;100906.94;;;20.08;59.61
73842;BME280;62184;52.006;5.924;2022-10-31T13:01:50;100910.31;;;20.26;59.85
73842;BME280;62184;52.006;5.924;2022-10-31T13:04:34;100892.81;;;20.32;58.82
73842;BME280;62184;52.006;5.924;2022-10-31T13:07:11;100887.16;;;20.35;58.77
73842;BME280;62184;52.006;5.924;2022-10-31T13:09:46;100882.34;;;20.26;58.89
73842;BME280;62184;52.006;5.924;2022-10-31T13:12:22;100876.72;;;20.29;58.67
73842;BME280;62184;52.006;5.924;2022-10-31T13:14:56;100872.44;;;20.39;58.91
73842;BME280;62184;52.006;5.924;2022-10-31T13:17:28;100871.06;;;20.46;58.34
73842;BME280;62184;52.006;5.924;2022-10-31T13:20:17;100850.31;;;20.45;58.27